sensor_id;sensor_type;location;lat;lon;timestamp;pressure;altitude;pressure_sealevel;temperature;humidity
49583;BME280;36329;48.816;44.624;2022-12-07T00:01:05;103201;;;-9;68
49583;BME280;36329;48.816;44.624;2022-12-07T00:04:10;103206.01;;;-8.8;67.4
49583;BME280;36329;48.816;44.624;2022-12-07T00:07:13;103200;;;-8.9;67.4
49583;BME280;36329;48.816;44.624;2022-12-07T00:10:15;103202;;;-8.9;67.8
49583;BME280;36329;48.816;44.624;2022-12-07T00:13:16;103200;;;-9;68.3
49583;BME280;36329;48.816;44.624;2022-12-07T00:16:19;103205.01;;;-8.9;67.7
49583;BME280;36329;48.816;44.624;2022-12-07T00:19:21;103202;;;-9;67.6
49583;BME280;36329;48.816;44.624;2022-12-07T00:22:23;103197;;;-9.1;68.4
49583;BME280;36329;48.816;44.624;2022-12-07T00:25:25;103194.99;;;-9.2;68.6
49583;BME280;36329;48.816;44.624;2022-12-07T00:28:26;103197;;;-9.3;68.4
49583;BME280;36329;48.816;44.624;2022-12-07T00:31:31;103198;;;-9.2;67.7
49583;BME280;36329;48.816;44.624;2022-12-07T00:34:32;103192.01;;;-9.1;68
49583;BME280;36329;48.816;44.624;2022-12-07T00:37:34;103191;;;-9;67.6
49583;BME280;36329;48.816;44.624;2022-12-07T00:40:36;103187;;;-9;67.6
49583;BME280;36329;48.816;44.624;2022-12-07T00:43:37;103187;;;-8.8;67
49583;BME280;36329;48.816;44.624;2022-12-07T00:46:39;103185;;;-8.8;67.1
49583;BME280;36329;48.816;44.624;2022-12-07T00:49:41;103182.99;;;-8.8;67.3
49583;BME280;36329;48.816;44.624;2022-12-07T00:52:42;103180.01;;;-9.3;68.8
49583;BME280;36329;48.816;44.624;2022-12-07T00:55:44;103178;;;-8.9;68.3
49583;BME280;36329;48.816;44.624;2022-12-07T00:58:49;103178;;;-8.8;67.1
49583;BME280;36329;48.816;44.624;2022-12-07T01:01:51;103177;;;-8.8;67
49583;BME280;36329;48.816;44.624;2022-12-07T01:04:53;103176;;;-8.8;66.8
49583;BME280;36329;48.816;44.624;2022-12-07T01:07:54;103178;;;-8.6;66.8
49583;BME280;36329;48.816;44.624;2022-12-07T01:10:58;103181.01;;;-8.6;66.5
49583;BME280;36329;48.816;44.624;2022-12-07T01:14:00;103168.01;;;-8.8;66.8
49583;BME280;36329;48.816;44.624;2022-12-07T01:17:01;103175;;;-8.8;66.3
49583;BME280;36329;48.816;44.624;2022-12-07T01:20:04;103177;;;-8.9;67.3
49583;BME280;36329;48.816;44.624;2022-12-07T01:23:05;103169.99;;;-8.9;66.9
49583;BME280;36329;48.816;44.624;2022-12-07T01:26:11;103172;;;-8.9;67.1
49583;BME280;36329;48.816;44.624;2022-12-07T01:29:13;103177;;;-9.1;68.5
49583;BME280;36329;48.816;44.624;2022-12-07T01:32:15;103179;;;-8.7;67.2
49583;BME280;36329;48.816;44.624;2022-12-07T01:35:16;103180.01;;;-8.5;65.9
49583;BME280;36329;48.816;44.624;2022-12-07T01:38:18;103181.01;;;-8.9;66.7
49583;BME280;36329;48.816;44.624;2022-12-07T01:41:20;103177;;;-8.9;66.5
49583;BME280;36329;48.816;44.624;2022-12-07T01:44:28;103182.99;;;-8.9;66.4
49583;BME280;36329;48.816;44.624;2022-12-07T01:47:31;103179;;;-8.8;65.8
49583;BME280;36329;48.816;44.624;2022-12-07T01:50:33;103182.99;;;-8.8;65.6
49583;BME280;36329;48.816;44.624;2022-12-07T01:53:36;103184;;;-8.8;65.6
49583;BME280;36329;48.816;44.624;2022-12-07T01:56:40;103184;;;-8.7;65.2
49583;BME280;36329;48.816;44.624;2022-12-07T01:59:48;103186;;;-8.8;65.3
49583;BME280;36329;48.816;44.624;2022-12-07T02:02:54;103187;;;-8.6;64.8
49583;BME280;36329;48.816;44.624;2022-12-07T02:05:57;103182.99;;;-8.8;64.9
49583;BME280;36329;48.816;44.624;2022-12-07T02:09:00;103182.99;;;-8.9;64.9
49583;BME280;36329;48.816;44.624;2022-12-07T02:12:02;103180.01;;;-8.9;64.6
49583;BME280;36329;48.816;44.624;2022-12-07T02:15:04;103175;;;-9.1;65.3
49583;BME280;36329;48.816;44.624;2022-12-07T02:18:10;103173;;;-9.4;65.8
49583;BME280;36329;48.816;44.624;2022-12-07T02:21:20;103174;;;-9.4;65.8
49583;BME280;36329;48.816;44.624;2022-12-07T02:24:37;103176;;;-9.6;66.3
49583;BME280;36329;48.816;44.624;2022-12-07T02:27:50;103182.99;;;-9.5;66.5
49583;BME280;36329;48.816;44.624;2022-12-07T02:30:58;103181.01;;;-9.4;66.1
49583;BME280;36329;48.816;44.624;2022-12-07T02:34:05;103171;;;-9.4;65
49583;BME280;36329;48.816;44.624;2022-12-07T02:37:17;103169.99;;;-9.4;65.5
49583;BME280;36329;48.816;44.624;2022-12-07T02:40:23;103182.99;;;-9.7;66.5
49583;BME280;36329;48.816;44.624;2022-12-07T02:43:28;103181.01;;;-9.4;66.3
49583;BME280;36329;48.816;44.624;2022-12-07T02:46:34;103178;;;-9.4;66
49583;BME280;36329;48.816;44.624;2022-12-07T02:49:38;103180.01;;;-9.4;65.9
49583;BME280;36329;48.816;44.624;2022-12-07T02:52:40;103175;;;-9.3;65.3
49583;BME280;36329;48.816;44.624;2022-12-07T02:55:41;103176;;;-9.3;65.3
49583;BME280;36329;48.816;44.624;2022-12-07T02:58:49;103175;;;-9.4;64.8
49583;BME280;36329;48.816;44.624;2022-12-07T03:01:59;103174;;;-9.3;64.5
49583;BME280;36329;48.816;44.624;2022-12-07T03:05:11;103179;;;-9.4;64.2
49583;BME280;36329;48.816;44.624;2022-12-07T03:08:21;103184;;;-9.4;65.3
49583;BME280;36329;48.816;44.624;2022-12-07T03:11:29;103185;;;-9.4;65.9
49583;BME280;36329;48.816;44.624;2022-12-07T03:14:41;103193.99;;;-9.5;65.6
49583;BME280;36329;48.816;44.624;2022-12-07T03:17:48;103186;;;-9.5;65.7
49583;BME280;36329;48.816;44.624;2022-12-07T03:20:55;103185;;;-9.5;66.3
49583;BME280;36329;48.816;44.624;2022-12-07T03:24:04;103182.99;;;-9.7;66.8
49583;BME280;36329;48.816;44.624;2022-12-07T03:27:12;103191;;;-9.5;65.7
49583;BME280;36329;48.816;44.624;2022-12-07T03:30:17;103182.99;;;-9.6;66
49583;BME280;36329;48.816;44.624;2022-12-07T03:33:23;103185;;;-9.5;65.9
49583;BME280;36329;48.816;44.624;2022-12-07T03:36:29;103182.99;;;-9.5;66.2
49583;BME280;36329;48.816;44.624;2022-12-07T03:39:37;103188;;;-9.8;67.3
49583;BME280;36329;48.816;44.624;2022-12-07T03:42:42;103188;;;-9.6;66.5
49583;BME280;36329;48.816;44.624;2022-12-07T03:45:49;103188;;;-9.5;66.4
49583;BME280;36329;48.816;44.624;2022-12-07T03:48:56;103191;;;-9.4;66.7
49583;BME280;36329;48.816;44.624;2022-12-07T03:52:02;103189;;;-9.5;66.9
49583;BME280;36329;48.816;44.624;2022-12-07T03:55:13;103186;;;-9.7;67.5
49583;BME280;36329;48.816;44.624;2022-12-07T03:58:19;103192.01;;;-9.9;68.4
49583;BME280;36329;48.816;44.624;2022-12-07T04:01:22;103200;;;-9.8;68.4
49583;BME280;36329;48.816;44.624;2022-12-07T04:04:25;103196;;;-10;68.4
49583;BME280;36329;48.816;44.624;2022-12-07T04:07:26;103196;;;-10;68.5
49583;BME280;36329;48.816;44.624;2022-12-07T04:10:28;103196;;;-10;68
49583;BME280;36329;48.816;44.624;2022-12-07T04:13:30;103199;;;-10.1;68.9
49583;BME280;36329;48.816;44.624;2022-12-07T04:16:31;103200;;;-10.1;69.1
49583;BME280;36329;48.816;44.624;2022-12-07T04:19:33;103204;;;-10.1;68.5
49583;BME280;36329;48.816;44.624;2022-12-07T04:22:35;103200;;;-10;68.9
49583;BME280;36329;48.816;44.624;2022-12-07T04:25:37;103210;;;-10.2;69.2
49583;BME280;36329;48.816;44.624;2022-12-07T04:28:38;103199;;;-10.1;68.8
49583;BME280;36329;48.816;44.624;2022-12-07T04:31:40;103203;;;-10.2;69.1
49583;BME280;36329;48.816;44.624;2022-12-07T04:34:43;103205.01;;;-10.2;68.8
49583;BME280;36329;48.816;44.624;2022-12-07T04:37:44;103212;;;-10.2;69.2
49583;BME280;36329;48.816;44.624;2022-12-07T04:40:46;103217.01;;;-10.2;68.6
49583;BME280;36329;48.816;44.624;2022-12-07T04:43:48;103218.01;;;-10.7;70.6
49583;BME280;36329;48.816;44.624;2022-12-07T04:46:50;103225;;;-10.2;71.9
49583;BME280;36329;48.816;44.624;2022-12-07T04:49:51;103222;;;-10.2;70.5
49583;BME280;36329;48.816;44.624;2022-12-07T04:52:53;103223;;;-10.1;70.3
49583;BME280;36329;48.816;44.624;2022-12-07T04:55:55;103221;;;-9.7;68.4
49583;BME280;36329;48.816;44.624;2022-12-07T04:58:57;103218.01;;;-9.6;66.4
49583;BME280;36329;48.816;44.624;2022-12-07T05:01:59;103231.99;;;-9.9;66.8
49583;BME280;36329;48.816;44.624;2022-12-07T05:05:00;103231.99;;;-9.9;66.5
49583;BME280;36329;48.816;44.624;2022-12-07T05:08:02;103229;;;-10.1;67
49583;BME280;36329;48.816;44.624;2022-12-07T05:11:05;103226;;;-10.4;68.6
49583;BME280;36329;48.816;44.624;2022-12-07T05:14:09;103229;;;-10.4;68.9
49583;BME280;36329;48.816;44.624;2022-12-07T05:17:11;103231.99;;;-10.4;68.7
49583;BME280;36329;48.816;44.624;2022-12-07T05:20:13;103238;;;-10.4;69.2
49583;BME280;36329;48.816;44.624;2022-12-07T05:23:14;103235;;;-10.4;69.5
49583;BME280;36329;48.816;44.624;2022-12-07T05:26:16;103239;;;-10.2;68.9
49583;BME280;36329;48.816;44.624;2022-12-07T05:29:18;103236;;;-10;67.8
49583;BME280;36329;48.816;44.624;2022-12-07T05:32:19;103247;;;-10.1;67.8
49583;BME280;36329;48.816;44.624;2022-12-07T05:35:21;103253;;;-9.9;66.9
49583;BME280;36329;48.816;44.624;2022-12-07T05:38:23;103257.99;;;-9.6;66.1
49583;BME280;36329;48.816;44.624;2022-12-07T05:41:25;103259;;;-9.7;65.9
49583;BME280;36329;48.816;44.624;2022-12-07T05:44:26;103263;;;-9.6;65.5
49583;BME280;36329;48.816;44.624;2022-12-07T05:47:28;103251;;;-9.3;63.9
49583;BME280;36329;48.816;44.624;2022-12-07T05:50:29;103251;;;-8.9;62.3
49583;BME280;36329;48.816;44.624;2022-12-07T05:53:31;103249;;;-8.7;60.2
49583;BME280;36329;48.816;44.624;2022-12-07T05:56:33;103253;;;-8.3;59.7
49583;BME280;36329;48.816;44.624;2022-12-07T05:59:36;103249;;;-8.1;57.7
49583;BME280;36329;48.816;44.624;2022-12-07T06:02:37;103254;;;-7.4;56
49583;BME280;36329;48.816;44.624;2022-12-07T06:05:39;103256.99;;;-6.9;53.7
49583;BME280;36329;48.816;44.624;2022-12-07T06:08:41;103251;;;-7.3;52.7
49583;BME280;36329;48.816;44.624;2022-12-07T06:11:42;103251;;;-6.9;52.9
49583;BME280;36329;48.816;44.624;2022-12-07T06:14:44;103262;;;-6.4;51.5
49583;BME280;36329;48.816;44.624;2022-12-07T06:17:47;103257.99;;;-5.7;48.7
49583;BME280;36329;48.816;44.624;2022-12-07T06:20:48;103252;;;-5.4;48
49583;BME280;36329;48.816;44.624;2022-12-07T06:23:51;103264;;;-5.4;47.1
49583;BME280;36329;48.816;44.624;2022-12-07T06:26:54;103262;;;-5;45.9
49583;BME280;36329;48.816;44.624;2022-12-07T06:29:55;103257.99;;;-4.8;45.7
49583;BME280;36329;48.816;44.624;2022-12-07T06:32:57;103256.99;;;-4.8;45.2
49583;BME280;36329;48.816;44.624;2022-12-07T06:35:59;103267.01;;;-4.5;44.3
49583;BME280;36329;48.816;44.624;2022-12-07T06:39:02;103268.01;;;-3.8;43.2
49583;BME280;36329;48.816;44.624;2022-12-07T06:42:04;103262;;;-3.6;42.7
49583;BME280;36329;48.816;44.624;2022-12-07T06:45:06;103269.99;;;-3.6;42.7
49583;BME280;36329;48.816;44.624;2022-12-07T06:48:08;103259;;;-3.5;42.6
49583;BME280;36329;48.816;44.624;2022-12-07T06:51:10;103254;;;-4.4;43.5
49583;BME280;36329;48.816;44.624;2022-12-07T06:54:14;103259;;;-4.1;42.4
49583;BME280;36329;48.816;44.624;2022-12-07T06:57:15;103254;;;-3.8;42.9
49583;BME280;36329;48.816;44.624;2022-12-07T07:00:18;103251;;;-3.4;41.6
49583;BME280;36329;48.816;44.624;2022-12-07T07:03:21;103253;;;-3.1;41.5
49583;BME280;36329;48.816;44.624;2022-12-07T07:06:22;103256.01;;;-2.6;40.1
49583;BME280;36329;48.816;44.624;2022-12-07T07:09:24;103257.99;;;-3.1;39.3
49583;BME280;36329;48.816;44.624;2022-12-07T07:12:26;103250;;;-2.1;38.6
49583;BME280;36329;48.816;44.624;2022-12-07T07:15:27;103253;;;-2.3;38.5
49583;BME280;36329;48.816;44.624;2022-12-07T07:18:29;103246;;;-2.2;37.9
49583;BME280;36329;48.816;44.624;2022-12-07T07:21:30;103243.99;;;-2.1;37.7
49583;BME280;36329;48.816;44.624;2022-12-07T07:24:32;103243.01;;;-2.1;37.6
49583;BME280;36329;48.816;44.624;2022-12-07T07:27:33;103232.99;;;-2.7;39.1
49583;BME280;36329;48.816;44.624;2022-12-07T07:30:35;103231.99;;;-2.3;38.2
49583;BME280;36329;48.816;44.624;2022-12-07T07:33:36;103232.99;;;-2.3;38.2
49583;BME280;36329;48.816;44.624;2022-12-07T07:36:38;103226;;;-1.4;37.3
49583;BME280;36329;48.816;44.624;2022-12-07T07:39:39;103216;;;-0.8;35.4
49583;BME280;36329;48.816;44.624;2022-12-07T07:42:41;103213;;;-2;37.6
49583;BME280;36329;48.816;44.624;2022-12-07T07:45:44;103204;;;-0.6;35.7
49583;BME280;36329;48.816;44.624;2022-12-07T07:48:46;103196;;;0.5;33.7
49583;BME280;36329;48.816;44.624;2022-12-07T07:51:47;103193.01;;;1.7;32
49583;BME280;36329;48.816;44.624;2022-12-07T07:54:48;103197;;;1.5;32.3
49583;BME280;36329;48.816;44.624;2022-12-07T07:57:50;103198;;;1.4;31.9
49583;BME280;36329;48.816;44.624;2022-12-07T08:00:52;103194.99;;;1.6;31
49583;BME280;36329;48.816;44.624;2022-12-07T08:03:54;103188;;;1.2;31.2
49583;BME280;36329;48.816;44.624;2022-12-07T08:06:56;103179;;;1;31.7
49583;BME280;36329;48.816;44.624;2022-12-07T08:09:58;103179;;;-0.8;34.3
49583;BME280;36329;48.816;44.624;2022-12-07T08:12:59;103177;;;0.1;34
49583;BME280;36329;48.816;44.624;2022-12-07T08:16:04;103165;;;-1.5;36.8
49583;BME280;36329;48.816;44.624;2022-12-07T08:19:06;103167.01;;;0.6;33.6
49583;BME280;36329;48.816;44.624;2022-12-07T08:22:08;103162;;;-0.1;34
49583;BME280;36329;48.816;44.624;2022-12-07T08:25:09;103165;;;1.7;32
49583;BME280;36329;48.816;44.624;2022-12-07T08:28:11;103155.01;;;0.8;33
49583;BME280;36329;48.816;44.624;2022-12-07T08:31:14;103154;;;2.3;31.5
49583;BME280;36329;48.816;44.624;2022-12-07T08:34:16;103142.01;;;2.4;30.3
49583;BME280;36329;48.816;44.624;2022-12-07T08:37:18;103147;;;2.7;29.8
49583;BME280;36329;48.816;44.624;2022-12-07T08:40:20;103142.01;;;1.4;31.6
49583;BME280;36329;48.816;44.624;2022-12-07T08:43:22;103142.01;;;1.9;30.8
49583;BME280;36329;48.816;44.624;2022-12-07T08:46:26;103131.99;;;2;30.5
49583;BME280;36329;48.816;44.624;2022-12-07T08:49:33;103126;;;4.2;28.1
49583;BME280;36329;48.816;44.624;2022-12-07T08:52:36;103135;;;3;28.7
49583;BME280;36329;48.816;44.624;2022-12-07T08:55:38;103126;;;0.7;32.2
49583;BME280;36329;48.816;44.624;2022-12-07T08:58:40;103125;;;1.9;31.2
49583;BME280;36329;48.816;44.624;2022-12-07T09:01:45;103112;;;3.3;29.5
49583;BME280;36329;48.816;44.624;2022-12-07T09:04:47;103106.99;;;4.1;27.9
49583;BME280;36329;48.816;44.624;2022-12-07T09:07:54;103111;;;5.4;26.8
49583;BME280;36329;48.816;44.624;2022-12-07T09:10:57;103104;;;3.4;28.6
49583;BME280;36329;48.816;44.624;2022-12-07T09:13:59;103106.01;;;5.4;26.3
49583;BME280;36329;48.816;44.624;2022-12-07T09:17:10;103092.01;;;6.3;25.2
49583;BME280;36329;48.816;44.624;2022-12-07T09:20:13;103099;;;4.9;26.2
49583;BME280;36329;48.816;44.624;2022-12-07T09:23:15;103089;;;5.2;26.3
49583;BME280;36329;48.816;44.624;2022-12-07T09:26:16;103101;;;5.6;25.4
49583;BME280;36329;48.816;44.624;2022-12-07T09:29:18;103098;;;5.8;25.3
49583;BME280;36329;48.816;44.624;2022-12-07T09:32:20;103086;;;3.9;26.9
49583;BME280;36329;48.816;44.624;2022-12-07T09:35:22;103081.01;;;3.5;28.7
49583;BME280;36329;48.816;44.624;2022-12-07T09:38:24;103085;;;4.8;27.4
49583;BME280;36329;48.816;44.624;2022-12-07T09:41:27;103081.01;;;5.4;26.3
49583;BME280;36329;48.816;44.624;2022-12-07T09:44:31;103082.99;;;5.2;26.1
49583;BME280;36329;48.816;44.624;2022-12-07T09:47:33;103075;;;5.1;26
49583;BME280;36329;48.816;44.624;2022-12-07T09:50:34;103079;;;5.2;26.3
49583;BME280;36329;48.816;44.624;2022-12-07T09:53:37;103079;;;4.9;26.4
49583;BME280;36329;48.816;44.624;2022-12-07T09:56:40;103067.01;;;3;28.5
49583;BME280;36329;48.816;44.624;2022-12-07T09:59:41;103071;;;5.4;25.9
49583;BME280;36329;48.816;44.624;2022-12-07T10:02:44;103074;;;5.9;25.4
49583;BME280;36329;48.816;44.624;2022-12-07T10:05:50;103061;;;5.5;25.8
49583;BME280;36329;48.816;44.624;2022-12-07T10:08:52;103055.01;;;6.4;24.8
49583;BME280;36329;48.816;44.624;2022-12-07T10:12:04;103054;;;4.3;27
49583;BME280;36329;48.816;44.624;2022-12-07T10:15:07;103050;;;4.5;27.5
49583;BME280;36329;48.816;44.624;2022-12-07T10:18:18;103057.99;;;6.1;25.6
49583;BME280;36329;48.816;44.624;2022-12-07T10:21:22;103060;;;5.4;26.3
49583;BME280;36329;48.816;44.624;2022-12-07T10:24:24;103052;;;5.3;26.4
49583;BME280;36329;48.816;44.624;2022-12-07T10:27:30;103050;;;5.1;25.8
49583;BME280;36329;48.816;44.624;2022-12-07T10:30:45;103043.99;;;5.8;25.8
49583;BME280;36329;48.816;44.624;2022-12-07T10:33:50;103048;;;6;25.5
49583;BME280;36329;48.816;44.624;2022-12-07T10:36:53;103046;;;4.4;27.2
49583;BME280;36329;48.816;44.624;2022-12-07T10:39:56;103039;;;3.7;28.4
49583;BME280;36329;48.816;44.624;2022-12-07T10:43:17;103031.99;;;4.1;28.3
49583;BME280;36329;48.816;44.624;2022-12-07T10:46:31;103028;;;4.8;27.1
49583;BME280;36329;48.816;44.624;2022-12-07T10:49:49;103029;;;4.6;27
49583;BME280;36329;48.816;44.624;2022-12-07T10:53:05;103027;;;4.4;27.5
49583;BME280;36329;48.816;44.624;2022-12-07T10:56:21;103021;;;5.3;26.4
49583;BME280;36329;48.816;44.624;2022-12-07T11:03:20;103012;;;3.4;28.7
49583;BME280;36329;48.816;44.624;2022-12-07T11:06:31;103018.99;;;3.9;28.3
49583;BME280;36329;48.816;44.624;2022-12-07T11:09:53;103015;;;2.7;29.4
49583;BME280;36329;48.816;44.624;2022-12-07T11:13:04;103002;;;1.9;30.7
49583;BME280;36329;48.816;44.624;2022-12-07T11:16:23;103004;;;2.8;30.1
49583;BME280;36329;48.816;44.624;2022-12-07T11:19:34;102997;;;3;29.7
49583;BME280;36329;48.816;44.624;2022-12-07T11:22:48;102996;;;2.5;30.7
49583;BME280;36329;48.816;44.624;2022-12-07T11:26:00;103002;;;2.3;31.1
49583;BME280;36329;48.816;44.624;2022-12-07T11:29:13;102993.99;;;2.8;30.5
49583;BME280;36329;48.816;44.624;2022-12-07T11:32:29;103005.01;;;3;30.7
49583;BME280;36329;48.816;44.624;2022-12-07T11:35:44;103002;;;2.2;31
49583;BME280;36329;48.816;44.624;2022-12-07T11:38:52;102997;;;2.5;30.7
49583;BME280;36329;48.816;44.624;2022-12-07T11:42:00;103001;;;1.4;32.4
49583;BME280;36329;48.816;44.624;2022-12-07T11:45:14;103005.01;;;1.7;32.2
49583;BME280;36329;48.816;44.624;2022-12-07T11:48:21;103011;;;0.9;33.3
49583;BME280;36329;48.816;44.624;2022-12-07T11:51:25;103004;;;0.7;33.5
49583;BME280;36329;48.816;44.624;2022-12-07T11:54:30;103007.99;;;0.6;33.9
49583;BME280;36329;48.816;44.624;2022-12-07T11:57:37;102998;;;-0.8;36.2
49583;BME280;36329;48.816;44.624;2022-12-07T12:00:42;103010;;;-1.1;36.7
49583;BME280;36329;48.816;44.624;2022-12-07T12:03:46;103002;;;-1.2;37.4
49583;BME280;36329;48.816;44.624;2022-12-07T12:06:48;102997;;;-2;39.4
49583;BME280;36329;48.816;44.624;2022-12-07T12:09:53;102998;;;-1.9;39.6
49583;BME280;36329;48.816;44.624;2022-12-07T12:13:07;103003;;;-2.3;40.2
49583;BME280;36329;48.816;44.624;2022-12-07T12:16:28;103003;;;-2.7;41.1
49583;BME280;36329;48.816;44.624;2022-12-07T12:19:40;102997;;;-3.6;43.2
49583;BME280;36329;48.816;44.624;2022-12-07T12:22:46;103003;;;-3.9;43.7
49583;BME280;36329;48.816;44.624;2022-12-07T12:25:53;102997;;;-4;44.2
49583;BME280;36329;48.816;44.624;2022-12-07T12:28:57;102993.99;;;-4.4;45.4
49583;BME280;36329;48.816;44.624;2022-12-07T12:32:13;103004;;;-4.6;45.6
49583;BME280;36329;48.816;44.624;2022-12-07T12:35:28;102998;;;-4.6;46.5
49583;BME280;36329;48.816;44.624;2022-12-07T12:38:32;103007.99;;;-5.1;47.5
49583;BME280;36329;48.816;44.624;2022-12-07T12:41:52;103004;;;-5.1;48
49583;BME280;36329;48.816;44.624;2022-12-07T12:45:17;103006.01;;;-5;48.4
49583;BME280;36329;48.816;44.624;2022-12-07T12:48:29;103002;;;-4.9;48.1
49583;BME280;36329;48.816;44.624;2022-12-07T12:51:36;103004;;;-4.9;48.2
49583;BME280;36329;48.816;44.624;2022-12-07T12:54:57;103001;;;-4.9;48.3
49583;BME280;36329;48.816;44.624;2022-12-07T13:01:41;103000;;;-5;49.2
49583;BME280;36329;48.816;44.624;2022-12-07T13:04:50;102998;;;-5.1;49.5
49583;BME280;36329;48.816;44.624;2022-12-07T13:07:56;103001;;;-5.3;49.5
49583;BME280;36329;48.816;44.624;2022-12-07T13:11:16;102993.01;;;-5.8;50.1
49583;BME280;36329;48.816;44.624;2022-12-07T13:14:39;102994.99;;;-5.9;50.8
49583;BME280;36329;48.816;44.624;2022-12-07T13:17:57;102998;;;-5.8;50.9
49583;BME280;36329;48.816;44.624;2022-12-07T13:21:00;103013;;;-6;52.1
49583;BME280;36329;48.816;44.624;2022-12-07T13:24:07;103001;;;-6;52.4
49583;BME280;36329;48.816;44.624;2022-12-07T13:27:12;102999;;;-6.3;53.6
49583;BME280;36329;48.816;44.624;2022-12-07T13:30:16;103005.01;;;-6.2;53.7
49583;BME280;36329;48.816;44.624;2022-12-07T13:33:18;103001;;;-6.4;53.5
49583;BME280;36329;48.816;44.624;2022-12-07T13:36:22;103009;;;-6.5;54.1
49583;BME280;36329;48.816;44.624;2022-12-07T13:39:26;103010;;;-6.3;53.6
49583;BME280;36329;48.816;44.624;2022-12-07T13:42:29;103006.01;;;-6.5;54.1
49583;BME280;36329;48.816;44.624;2022-12-07T13:45:32;103011;;;-6.5;54.3
49583;BME280;36329;48.816;44.624;2022-12-07T13:48:36;103006.99;;;-6.8;54.2
49583;BME280;36329;48.816;44.624;2022-12-07T13:51:43;103022;;;-7;54.7
49583;BME280;36329;48.816;44.624;2022-12-07T13:54:46;103023;;;-7;54.3
49583;BME280;36329;48.816;44.624;2022-12-07T13:57:50;103014;;;-7;55.1
49583;BME280;36329;48.816;44.624;2022-12-07T14:00:54;103024;;;-7;54.9
49583;BME280;36329;48.816;44.624;2022-12-07T14:03:56;103024;;;-7.1;54.8
49583;BME280;36329;48.816;44.624;2022-12-07T14:06:58;103016;;;-6.8;54.5
49583;BME280;36329;48.816;44.624;2022-12-07T14:10:02;103026;;;-7.1;54.8
49583;BME280;36329;48.816;44.624;2022-12-07T14:13:24;103019.99;;;-7.2;55.2
49583;BME280;36329;48.816;44.624;2022-12-07T14:16:31;103027;;;-7.1;54.8
49583;BME280;36329;48.816;44.624;2022-12-07T14:19:43;103029;;;-7.1;54.9
49583;BME280;36329;48.816;44.624;2022-12-07T14:22:54;103024;;;-7;54.5
49583;BME280;36329;48.816;44.624;2022-12-07T14:26:06;103025;;;-7.2;54.7
49583;BME280;36329;48.816;44.624;2022-12-07T14:29:29;103029;;;-7.7;55.7
49583;BME280;36329;48.816;44.624;2022-12-07T14:32:35;103032.99;;;-7.6;55.4
49583;BME280;36329;48.816;44.624;2022-12-07T14:35:37;103028;;;-7.4;55.5
49583;BME280;36329;48.816;44.624;2022-12-07T14:38:39;103032.99;;;-7.4;55.3
49583;BME280;36329;48.816;44.624;2022-12-07T14:41:41;103031.99;;;-7.3;55.2
49583;BME280;36329;48.816;44.624;2022-12-07T14:44:44;103031.01;;;-7.2;55.2
49583;BME280;36329;48.816;44.624;2022-12-07T14:47:46;103038;;;-7.5;56.3
49583;BME280;36329;48.816;44.624;2022-12-07T14:50:50;103038;;;-7.6;55.9
49583;BME280;36329;48.816;44.624;2022-12-07T14:53:52;103026;;;-8;57.3
49583;BME280;36329;48.816;44.624;2022-12-07T14:56:54;103031.01;;;-7.8;57.7
49583;BME280;36329;48.816;44.624;2022-12-07T14:59:56;103041;;;-7.9;57.7
49583;BME280;36329;48.816;44.624;2022-12-07T15:02:58;103043.99;;;-7.7;57
49583;BME280;36329;48.816;44.624;2022-12-07T15:05:59;103053;;;-7.7;57
49583;BME280;36329;48.816;44.624;2022-12-07T15:09:03;103044.99;;;-8;57.8
49583;BME280;36329;48.816;44.624;2022-12-07T15:12:06;103041;;;-7.7;56.8
49583;BME280;36329;48.816;44.624;2022-12-07T15:15:08;103044.99;;;-8.4;57.7
49583;BME280;36329;48.816;44.624;2022-12-07T15:18:11;103043.99;;;-8.5;58.8
49583;BME280;36329;48.816;44.624;2022-12-07T15:21:14;103044.99;;;-8.4;58.4
49583;BME280;36329;48.816;44.624;2022-12-07T15:24:16;103056.99;;;-8.3;58.6
49583;BME280;36329;48.816;44.624;2022-12-07T15:27:17;103041;;;-8.5;58.9
49583;BME280;36329;48.816;44.624;2022-12-07T15:30:19;103043.01;;;-8.2;58.3
49583;BME280;36329;48.816;44.624;2022-12-07T15:33:22;103048;;;-8.5;59.9
49583;BME280;36329;48.816;44.624;2022-12-07T15:36:26;103041;;;-8.4;60
49583;BME280;36329;48.816;44.624;2022-12-07T15:39:28;103050;;;-8.4;60
49583;BME280;36329;48.816;44.624;2022-12-07T15:42:29;103043.99;;;-8.4;59.8
49583;BME280;36329;48.816;44.624;2022-12-07T15:45:31;103049;;;-8.6;60.5
49583;BME280;36329;48.816;44.624;2022-12-07T15:48:32;103051;;;-8.6;60
49583;BME280;36329;48.816;44.624;2022-12-07T15:51:34;103053;;;-8.5;60.1
49583;BME280;36329;48.816;44.624;2022-12-07T15:54:35;103055.01;;;-8.5;59.7
49583;BME280;36329;48.816;44.624;2022-12-07T15:57:38;103071;;;-8.7;60.2
49583;BME280;36329;48.816;44.624;2022-12-07T16:00:40;103059;;;-8.8;60.9
49583;BME280;36329;48.816;44.624;2022-12-07T16:03:41;103071;;;-9.1;61.8
49583;BME280;36329;48.816;44.624;2022-12-07T16:06:43;103061;;;-9.2;62.4
49583;BME280;36329;48.816;44.624;2022-12-07T16:09:45;103065;;;-8.8;61.8
49583;BME280;36329;48.816;44.624;2022-12-07T16:12:47;103061;;;-8.9;62.5
49583;BME280;36329;48.816;44.624;2022-12-07T16:15:49;103066;;;-8.9;62.4
49583;BME280;36329;48.816;44.624;2022-12-07T16:18:51;103064;;;-8.6;61.4
49583;BME280;36329;48.816;44.624;2022-12-07T16:21:54;103074;;;-8.9;62.3
49583;BME280;36329;48.816;44.624;2022-12-07T16:24:55;103056.99;;;-9.1;61.8
49583;BME280;36329;48.816;44.624;2022-12-07T16:27:57;103068.99;;;-9;61.3
49583;BME280;36329;48.816;44.624;2022-12-07T16:31:01;103067.01;;;-9;61.1
49583;BME280;36329;48.816;44.624;2022-12-07T16:34:03;103075;;;-8.8;60.8
49583;BME280;36329;48.816;44.624;2022-12-07T16:37:05;103069.99;;;-9.1;61.3
49583;BME280;36329;48.816;44.624;2022-12-07T16:40:07;103066;;;-8.9;61.2
49583;BME280;36329;48.816;44.624;2022-12-07T16:43:10;103077;;;-8.8;61.1
49583;BME280;36329;48.816;44.624;2022-12-07T16:46:14;103069.99;;;-9.1;61.7
49583;BME280;36329;48.816;44.624;2022-12-07T16:49:16;103078;;;-8.8;61.1
49583;BME280;36329;48.816;44.624;2022-12-07T16:52:17;103068.99;;;-9;61.6
49583;BME280;36329;48.816;44.624;2022-12-07T16:55:19;103071;;;-9.1;62
49583;BME280;36329;48.816;44.624;2022-12-07T16:58:21;103071;;;-9;62
49583;BME280;36329;48.816;44.624;2022-12-07T17:01:23;103078;;;-8.9;62.1